Time;durP1;ratioP1;P1;durP2;ratioP2;P2;SDS_P1;SDS_P2;PMS_P1;PMS_P2;Temp;Humidity;BMP_temperature;BMP_pressure;BME280_temperature;BME280_humidity;BME280_pressure;Samples;Min_cycle;Max_cycle;Signal;HPM_P1;HPM_P2
2024/01/05 00:01:28;;;;;;;6.32;4.50;;;;;;;5.58;79.94;96973.41;4990433;28;20772;-73
2024/01/05 00:03:56;;;;;;;8.00;4.43;;;;;;;5.51;80.19;96962.66;4989753;28;20622;-73
2024/01/05 00:06:23;;;;;;;7.53;4.60;;;;;;;5.41;80.20;96954.13;4990642;28;20230;-73
2024/01/05 00:08:49;;;;;;;6.85;4.40;;;;;;;5.31;80.71;96951.78;4994189;28;20211;-73
2024/01/05 00:11:17;;;;;;;5.57;4.65;;;;;;;5.38;80.37;96941.94;4992918;28;20621;-73
2024/01/05 00:13:43;;;;;;;8.13;4.43;;;;;;;5.35;80.46;96936.97;4993274;28;20306;-73
2024/01/05 00:16:17;;;;;;;8.48;5.35;;;;;;;5.40;80.19;96934.53;4991450;28;20205;-73
2024/01/05 00:18:43;;;;;;;5.75;4.20;;;;;;;5.47;79.93;96936.44;4988967;28;20219;-74
2024/01/05 00:21:21;;;;;;;4.65;3.90;;;;;;;5.35;80.09;96926.22;4991866;28;20215;-73
2024/01/05 00:23:48;;;;;;;10.50;4.50;;;;;;;5.42;80.14;96925.44;4993502;28;20206;-73
2024/01/05 00:26:14;;;;;;;6.88;4.35;;;;;;;5.38;80.02;96915.13;4990051;28;20227;-73
2024/01/05 00:28:41;;;;;;;6.13;4.30;;;;;;;5.33;80.09;96901.47;4993390;28;20203;-73
2024/01/05 00:31:09;;;;;;;4.80;3.90;;;;;;;5.39;80.03;96905.22;4993182;28;20200;-73
2024/01/05 00:33:36;;;;;;;7.85;4.00;;;;;;;5.37;79.83;96900.03;4993380;28;20207;-73
2024/01/05 00:36:04;;;;;;;8.27;3.70;;;;;;;5.20;80.12;96908.63;4989231;28;20808;-73
2024/01/05 00:38:32;;;;;;;7.07;4.35;;;;;;;5.25;80.25;96903.47;4992553;28;20203;-73
2024/01/05 00:40:58;;;;;;;9.40;4.00;;;;;;;5.28;80.13;96909.25;4991527;28;20713;-73
2024/01/05 00:43:25;;;;;;;6.55;3.72;;;;;;;5.24;80.33;96901.81;4990845;28;20288;-74
2024/01/05 00:45:51;;;;;;;8.20;4.25;;;;;;;5.06;80.80;96905.00;4989954;28;20216;-73
2024/01/05 00:48:18;;;;;;;8.05;3.72;;;;;;;5.15;80.68;96903.00;5001189;28;20303;-73
2024/01/05 00:50:44;;;;;;;6.60;3.30;;;;;;;5.20;80.28;96922.81;4992932;28;20204;-73
2024/01/05 00:53:11;;;;;;;10.77;3.70;;;;;;;5.28;80.01;96919.16;4987812;28;20211;-73
2024/01/05 00:55:39;;;;;;;9.15;3.40;;;;;;;5.21;80.12;96919.13;4990983;28;20240;-74
2024/01/05 00:58:06;;;;;;;5.70;3.08;;;;;;;5.26;80.07;96923.91;4993801;28;20518;-73
2024/01/05 01:00:32;;;;;;;5.70;3.60;;;;;;;5.32;79.69;96926.63;4992988;28;20707;-74
2024/01/05 01:02:59;;;;;;;5.53;3.35;;;;;;;5.27;79.97;96923.69;4991868;28;20266;-73
2024/01/05 01:05:25;;;;;;;8.13;4.38;;;;;;;5.24;80.04;96929.44;4984718;28;20234;-73
2024/01/05 01:07:52;;;;;;;5.90;3.97;;;;;;;5.18;80.20;96924.91;4992155;28;20207;-73
2024/01/05 01:10:18;;;;;;;7.38;3.58;;;;;;;5.19;80.30;96934.59;4991134;28;20290;-73
2024/01/05 01:12:46;;;;;;;5.68;3.55;;;;;;;5.20;80.15;96938.13;4992199;28;20218;-73
2024/01/05 01:15:13;;;;;;;4.47;3.45;;;;;;;5.33;80.00;96928.28;4991092;28;20638;-73
2024/01/05 01:17:39;;;;;;;5.82;3.72;;;;;;;5.40;79.58;96934.53;4990555;28;20379;-73
2024/01/05 01:20:07;;;;;;;5.30;3.90;;;;;;;5.38;79.46;96933.91;4993281;28;20205;-73
2024/01/05 01:22:35;;;;;;;7.85;4.68;;;;;;;5.28;80.02;96937.94;5006804;28;20208;-73
2024/01/05 01:25:01;;;;;;;6.45;3.90;;;;;;;5.44;79.40;96934.13;4992374;28;20306;-73
2024/01/05 01:27:28;;;;;;;8.45;3.67;;;;;;;5.46;79.19;96926.72;4989921;28;20205;-73
2024/01/05 01:29:56;;;;;;;6.43;3.40;;;;;;;5.56;78.96;96911.91;4988099;28;20641;-73
2024/01/05 01:32:22;;;;;;;9.27;4.95;;;;;;;5.44;79.01;96905.44;4991011;28;20217;-73
2024/01/05 01:34:49;;;;;;;6.95;3.75;;;;;;;5.49;78.94;96899.50;4973723;28;20731;-73
2024/01/05 01:37:16;;;;;;;6.82;3.75;;;;;;;5.42;78.88;96904.81;4990870;28;20215;-73
2024/01/05 01:39:42;;;;;;;4.85;3.50;;;;;;;5.62;78.56;96894.19;4989910;28;20203;-73
2024/01/05 01:42:09;;;;;;;4.95;3.17;;;;;;;5.64;78.27;96894.81;4991032;28;20282;-73
2024/01/05 01:44:35;;;;;;;7.35;3.90;;;;;;;5.57;78.63;96885.88;4992670;28;20210;-73
2024/01/05 01:47:03;;;;;;;5.45;3.20;;;;;;;5.56;78.80;96884.22;4991567;28;20569;-73
2024/01/05 01:49:30;;;;;;;4.32;3.13;;;;;;;5.51;78.50;96870.63;4990029;28;20282;-73
2024/01/05 01:51:57;;;;;;;5.35;3.60;;;;;;;5.43;79.24;96866.22;4992188;28;20196;-73
2024/01/05 01:54:24;;;;;;;6.20;3.25;;;;;;;5.47;79.34;96864.81;5006583;28;20206;-73
2024/01/05 01:56:53;;;;;;;5.70;3.40;;;;;;;5.36;79.63;96865.38;4991499;28;20199;-72
2024/01/05 01:59:19;;;;;;;4.43;3.40;;;;;;;5.28;80.18;96849.44;4992104;28;20213;-73
2024/01/05 02:01:46;;;;;;;5.78;3.20;;;;;;;5.22;80.16;96847.53;4992457;28;20669;-73
2024/01/05 02:04:16;;;;;;;5.70;3.90;;;;;;;5.19;80.57;96842.59;4992081;28;20199;-73
2024/01/05 02:06:44;;;;;;;5.55;3.35;;;;;;;5.20;80.35;96830.84;4980986;28;20215;-73
2024/01/05 02:09:10;;;;;;;6.03;3.17;;;;;;;5.25;80.52;96839.91;4990813;28;20221;-73
2024/01/05 02:11:37;;;;;;;6.72;3.50;;;;;;;5.34;80.08;96832.53;5000565;28;20744;-73
2024/01/05 02:14:05;;;;;;;7.03;3.85;;;;;;;5.33;80.50;96830.88;4989359;28;20225;-73
2024/01/05 02:16:33;;;;;;;8.50;3.67;;;;;;;5.34;80.33;96832.53;5022480;28;20688;-73
2024/01/05 02:18:59;;;;;;;6.13;3.80;;;;;;;5.19;80.85;96824.66;4990040;28;20560;-73
2024/01/05 02:21:32;;;;;;;7.95;3.40;;;;;;;5.25;80.65;96823.00;4990177;28;20207;-73
2024/01/05 02:24:01;;;;;;;4.78;3.38;;;;;;;5.31;80.15;96832.94;5021611;28;20214;-73
2024/01/05 02:26:27;;;;;;;5.75;3.78;;;;;;;5.36;80.10;96834.00;4987989;28;20306;-73
2024/01/05 02:28:54;;;;;;;6.68;3.40;;;;;;;5.41;79.64;96822.69;4992081;28;20239;-73
2024/01/05 02:31:20;;;;;;;13.57;3.65;;;;;;;5.45;79.31;96829.31;4988206;28;20215;-73
2024/01/05 02:33:47;;;;;;;7.20;3.03;;;;;;;5.40;79.36;96821.03;4988477;28;20207;-73
2024/01/05 02:36:13;;;;;;;5.35;3.10;;;;;;;5.45;79.40;96815.06;4989110;28;20580;-73
2024/01/05 02:38:40;;;;;;;6.28;3.90;;;;;;;5.46;79.34;96809.50;4989221;28;20217;-73
2024/01/05 02:41:08;;;;;;;5.60;3.10;;;;;;;5.51;79.01;96811.59;4989583;28;20208;-73
2024/01/05 02:43:35;;;;;;;7.00;3.55;;;;;;;5.62;78.60;96810.97;4990427;28;20301;-73
2024/01/05 02:46:01;;;;;;;6.95;3.38;;;;;;;5.63;78.46;96826.06;4987932;28;20210;-72
2024/01/05 02:48:28;;;;;;;5.70;3.25;;;;;;;5.63;78.28;96815.31;4990617;28;20556;-73
2024/01/05 02:50:55;;;;;;;5.45;3.33;;;;;;;5.52;78.73;96819.44;4988056;28;20672;-73
2024/01/05 02:53:22;;;;;;;6.00;3.25;;;;;;;5.53;78.57;96814.88;4990893;28;20228;-73
2024/01/05 02:55:48;;;;;;;6.30;3.80;;;;;;;5.46;78.51;96822.09;5005168;28;20214;-73
2024/01/05 02:58:16;;;;;;;6.97;3.35;;;;;;;5.50;78.43;96816.13;4991467;28;20209;-73
2024/01/05 03:00:43;;;;;;;4.72;2.83;;;;;;;5.47;78.56;96808.47;4991601;28;20199;-73
2024/01/05 03:03:09;;;;;;;3.47;2.78;;;;;;;5.44;78.53;96808.88;4990783;28;20241;-73
2024/01/05 03:05:36;;;;;;;4.72;3.17;;;;;;;5.56;78.37;96801.03;5002720;28;20211;-73
2024/01/05 03:08:02;;;;;;;3.28;2.80;;;;;;;5.47;78.38;96794.22;4988523;28;21115;-73
2024/01/05 03:10:29;;;;;;;5.22;3.13;;;;;;;5.37;78.78;96800.78;4990835;28;20210;-73
2024/01/05 03:12:56;;;;;;;4.95;3.00;;;;;;;5.44;78.43;96789.25;4994518;28;20287;-73
2024/01/05 03:15:24;;;;;;;5.82;3.22;;;;;;;5.52;78.00;96797.13;4993754;28;20278;-73
2024/01/05 03:17:52;;;;;;;4.78;2.95;;;;;;;5.64;77.94;96790.13;4994326;28;20207;-73
2024/01/05 03:20:20;;;;;;;11.90;3.53;;;;;;;5.62;77.83;96786.81;4991167;28;20258;-73
2024/01/05 03:22:47;;;;;;;4.75;2.67;;;;;;;5.51;78.30;96784.75;4991120;28;20214;-73
2024/01/05 03:25:13;;;;;;;6.45;3.97;;;;;;;5.53;78.29;96788.84;4993264;28;20207;-73
2024/01/05 03:27:40;;;;;;;7.45;3.20;;;;;;;5.44;78.55;96783.88;4992313;28;20233;-73
2024/01/05 03:30:08;;;;;;;4.15;3.40;;;;;;;5.42;78.41;96767.16;4990969;28;20683;-72
2024/01/05 03:32:36;;;;;;;5.43;3.10;;;;;;;5.38;78.49;96770.25;4986421;28;20226;-74
2024/01/05 03:35:02;;;;;;;6.10;3.40;;;;;;;5.43;78.57;96763.47;4993158;28;20294;-74
2024/01/05 03:37:29;;;;;;;10.45;3.55;;;;;;;5.52;78.16;96762.25;4986049;28;20199;-73
2024/01/05 03:39:55;;;;;;;5.75;3.10;;;;;;;5.52;77.81;96751.53;4992572;28;20281;-73
2024/01/05 03:42:22;;;;;;;4.55;2.92;;;;;;;5.56;77.53;96758.94;4990365;28;20656;-73
2024/01/05 03:44:48;;;;;;;5.80;3.53;;;;;;;5.61;77.40;96761.84;4993466;28;20225;-73
2024/01/05 03:47:15;;;;;;;9.05;3.60;;;;;;;5.60;77.44;96751.31;4992736;28;20282;-73
2024/01/05 03:49:43;;;;;;;4.05;2.65;;;;;;;5.71;77.20;96750.72;4989752;28;20294;-73
2024/01/05 03:52:10;;;;;;;6.05;3.30;;;;;;;5.69;76.68;96753.63;4992780;28;20270;-73
2024/01/05 03:54:36;;;;;;;3.83;3.15;;;;;;;5.63;76.92;96754.41;5001230;28;20816;-73
2024/01/05 03:57:03;;;;;;;3.97;2.90;;;;;;;5.86;76.09;96755.91;4992895;28;20214;-73
2024/01/05 03:59:30;;;;;;;4.85;3.13;;;;;;;6.03;75.75;96741.94;4992642;28;20214;-73
2024/01/05 04:01:56;;;;;;;4.30;3.00;;;;;;;6.01;75.73;96749.34;4994276;28;20214;-73
2024/01/05 04:04:23;;;;;;;5.20;2.95;;;;;;;6.06;75.60;96746.88;4994729;28;20203;-73
2024/01/05 04:06:55;;;;;;;5.45;3.00;;;;;;;5.79;75.96;96745.19;4991677;28;20223;-74
2024/01/05 04:09:23;;;;;;;3.78;2.60;;;;;;;5.84;76.28;96747.25;4996449;28;20209;-73
2024/01/05 04:11:49;;;;;;;5.90;3.00;;;;;;;5.87;75.96;96736.91;5000698;28;20207;-73
2024/01/05 04:14:16;;;;;;;5.15;2.90;;;;;;;5.96;75.35;96727.66;5001081;28;20258;-73
2024/01/05 04:16:42;;;;;;;2.85;2.60;;;;;;;5.98;75.61;96727.47;5015723;28;20214;-74
2024/01/05 04:19:09;;;;;;;5.75;2.65;;;;;;;6.01;75.26;96719.00;4996566;28;20199;-73
2024/01/05 04:21:36;;;;;;;4.82;2.90;;;;;;;6.03;75.08;96715.06;4994605;28;20246;-73
2024/01/05 04:24:04;;;;;;;6.47;2.55;;;;;;;6.02;74.83;96718.78;4989939;28;20294;-72
2024/01/05 04:26:31;;;;;;;6.97;2.55;;;;;;;6.12;74.37;96721.06;4993374;28;20307;-73
2024/01/05 04:29:01;;;;;;;3.45;2.50;;;;;;;6.04;74.70;96714.03;4991954;28;20210;-73
2024/01/05 04:31:28;;;;;;;3.95;2.80;;;;;;;5.85;75.20;96722.84;4992403;28;20214;-73
2024/01/05 04:33:55;;;;;;;4.85;2.20;;;;;;;5.97;74.89;96705.16;4991327;28;20290;-73
2024/01/05 04:36:21;;;;;;;5.70;2.25;;;;;;;6.15;74.29;96698.34;4991829;28;20215;-74
2024/01/05 04:38:48;;;;;;;4.05;2.28;;;;;;;6.08;74.19;96695.66;4992078;28;20283;-74
2024/01/05 04:41:16;;;;;;;5.55;2.45;;;;;;;6.07;74.20;96694.81;4991062;28;20210;-73
2024/01/05 04:43:44;;;;;;;4.80;2.08;;;;;;;5.96;74.28;96703.50;4985935;28;20727;-73
2024/01/05 04:46:10;;;;;;;3.20;1.80;;;;;;;5.93;74.30;96698.53;4992630;28;20302;-73
2024/01/05 04:48:37;;;;;;;6.63;1.48;;;;;;;5.94;74.15;96705.56;4991505;28;20208;-73
2024/01/05 04:51:04;;;;;;;5.05;1.88;;;;;;;5.95;73.36;96696.47;4992417;28;20731;-73
2024/01/05 04:53:30;;;;;;;3.10;1.88;;;;;;;6.17;72.00;96699.78;4992663;28;20195;-73
2024/01/05 04:55:57;;;;;;;2.25;1.40;;;;;;;6.35;71.09;96691.09;4993345;28;20680;-73
2024/01/05 04:58:25;;;;;;;4.28;1.60;;;;;;;6.49;70.03;96687.34;4992256;28;20407;-74
2024/01/05 05:00:51;;;;;;;4.47;1.60;;;;;;;6.66;69.31;96687.72;5003514;28;20195;-74
2024/01/05 05:03:18;;;;;;;2.90;1.30;;;;;;;6.68;68.84;96681.09;5006143;28;20211;-73
2024/01/05 05:05:44;;;;;;;2.10;1.10;;;;;;;6.81;68.03;96685.63;4990384;28;20210;-73
2024/01/05 05:08:13;;;;;;;3.42;1.33;;;;;;;6.93;67.56;96683.06;4992008;28;20229;-74
2024/01/05 05:10:39;;;;;;;3.10;1.75;;;;;;;6.99;66.83;96684.91;4991331;28;20195;-73
2024/01/05 05:13:06;;;;;;;3.10;1.25;;;;;;;7.00;66.82;96694.63;4990535;28;20294;-73
2024/01/05 05:15:34;;;;;;;3.15;1.73;;;;;;;7.07;66.55;96684.69;5007511;28;20664;-73
2024/01/05 05:18:01;;;;;;;2.95;1.30;;;;;;;7.07;66.56;96690.06;4991797;28;20621;-73
2024/01/05 05:20:27;;;;;;;1.73;1.17;;;;;;;7.19;65.86;96693.72;4987006;28;20215;-73
2024/01/05 05:22:54;;;;;;;2.72;1.35;;;;;;;7.14;66.17;96682.78;4989696;28;20207;-74
2024/01/05 05:25:20;;;;;;;2.83;1.35;;;;;;;7.13;66.20;96691.06;4990799;28;20278;-73
2024/01/05 05:27:47;;;;;;;4.38;1.38;;;;;;;7.14;65.99;96700.81;4992308;28;20227;-73
2024/01/05 05:30:13;;;;;;;1.23;0.95;;;;;;;7.14;66.08;96690.88;4990744;28;20214;-73
2024/01/05 05:32:41;;;;;;;1.75;1.10;;;;;;;7.22;65.68;96695.16;4987508;28;20199;-74
2024/01/05 05:35:08;;;;;;;3.25;1.15;;;;;;;7.23;65.76;96689.56;4989187;28;20215;-73
2024/01/05 05:37:35;;;;;;;2.53;1.10;;;;;;;7.23;65.41;96686.88;5006168;28;20199;-73
2024/01/05 05:40:03;;;;;;;3.42;1.30;;;;;;;7.26;65.04;96678.38;4991751;28;20211;-73
2024/01/05 05:42:30;;;;;;;2.58;1.23;;;;;;;7.32;65.23;96685.59;4973393;28;20253;-73
2024/01/05 05:44:57;;;;;;;1.73;1.10;;;;;;;7.43;64.92;96697.53;4989062;28;20211;-73
2024/01/05 05:47:23;;;;;;;1.50;1.00;;;;;;;7.41;64.79;96696.94;4992384;28;20238;-73
2024/01/05 05:49:51;;;;;;;1.80;0.98;;;;;;;7.35;65.13;96698.63;4987962;28;20218;-73
2024/01/05 05:52:18;;;;;;;1.13;1.00;;;;;;;7.38;64.78;96697.34;4990459;28;20256;-74
2024/01/05 05:54:44;;;;;;;2.67;1.10;;;;;;;7.39;64.85;96694.47;4989521;28;20203;-74
2024/01/05 05:57:12;;;;;;;2.50;1.30;;;;;;;7.38;65.06;96683.91;4992133;28;20263;-73
2024/01/05 05:59:38;;;;;;;1.80;1.00;;;;;;;7.40;65.04;96682.66;4991139;28;20219;-73
2024/01/05 06:02:05;;;;;;;3.28;1.23;;;;;;;7.37;65.33;96688.47;4990311;28;20218;-73
2024/01/05 06:04:33;;;;;;;1.60;1.00;;;;;;;7.36;65.40;96684.13;4991871;28;20194;-73
2024/01/05 06:07:00;;;;;;;2.15;1.05;;;;;;;7.35;65.32;96682.47;4989410;28;20231;-74
2024/01/05 06:09:27;;;;;;;2.08;1.15;;;;;;;7.34;65.47;96677.31;5022175;28;20560;-73
2024/01/05 06:11:53;;;;;;;3.45;1.40;;;;;;;7.55;64.95;96681.50;4985529;28;20683;-74
2024/01/05 06:14:20;;;;;;;1.15;0.93;;;;;;;7.55;64.50;96692.28;4990897;28;20283;-73
2024/01/05 06:16:47;;;;;;;1.80;1.30;;;;;;;7.50;64.76;96679.47;4991156;28;20222;-73
2024/01/05 06:19:13;;;;;;;2.65;1.40;;;;;;;7.53;64.83;96680.91;5006738;28;20675;-74
2024/01/05 06:21:40;;;;;;;2.15;1.15;;;;;;;7.61;64.59;96686.88;4990893;28;20206;-73
2024/01/05 06:24:10;;;;;;;1.33;1.10;;;;;;;7.72;64.45;96688.03;4988066;28;20210;-74
2024/01/05 06:26:36;;;;;;;2.08;1.20;;;;;;;7.63;64.49;96694.72;4990258;28;20289;-73
2024/01/05 06:29:03;;;;;;;3.75;1.80;;;;;;;7.55;64.95;96708.44;4987830;28;20207;-73
2024/01/05 06:31:29;;;;;;;2.92;1.30;;;;;;;7.49;65.06;96703.91;4990163;28;20204;-74
2024/01/05 06:33:56;;;;;;;2.20;1.23;;;;;;;7.49;65.28;96709.28;4987215;28;20221;-73
2024/01/05 06:36:23;;;;;;;3.65;1.23;;;;;;;7.39;65.16;96710.59;4990278;28;20243;-73
2024/01/05 06:38:49;;;;;;;2.90;1.38;;;;;;;7.34;65.69;96712.28;4990644;28;20202;-74
2024/01/05 06:41:17;;;;;;;2.28;1.45;;;;;;;7.34;65.59;96709.59;4988479;28;20199;-74
2024/01/05 06:43:44;;;;;;;3.75;1.40;;;;;;;7.30;66.03;96717.25;4985327;28;20203;-74
2024/01/05 06:46:10;;;;;;;3.63;1.38;;;;;;;7.30;65.88;96706.50;4987900;28;20210;-73
2024/01/05 06:48:37;;;;;;;2.65;1.35;;;;;;;7.31;65.92;96716.22;4990275;28;20227;-73
2024/01/05 06:51:04;;;;;;;3.22;1.58;;;;;;;7.22;66.17;96705.91;4989723;28;20203;-73
2024/01/05 06:53:30;;;;;;;2.90;1.48;;;;;;;7.24;66.24;96712.72;4981932;28;20209;-73
2024/01/05 06:55:57;;;;;;;2.38;1.45;;;;;;;7.04;66.79;96706.63;4990240;28;20207;-73
2024/01/05 06:58:25;;;;;;;2.22;1.60;;;;;;;7.04;67.22;96696.69;4989640;28;20290;-75
2024/01/05 07:00:51;;;;;;;3.55;1.40;;;;;;;6.99;67.19;96707.25;4991061;28;20294;-74
2024/01/05 07:03:18;;;;;;;2.08;1.17;;;;;;;6.87;67.75;96708.13;4987277;28;20214;-74
2024/01/05 07:05:44;;;;;;;3.10;1.42;;;;;;;6.92;67.61;96709.13;4982746;28;20233;-74
2024/01/05 07:08:11;;;;;;;1.92;1.38;;;;;;;6.88;67.50;96715.16;4990965;28;20578;-74
2024/01/05 07:10:37;;;;;;;2.28;1.20;;;;;;;7.01;67.00;96726.69;4987536;28;20214;-74
2024/01/05 07:13:06;;;;;;;5.22;1.60;;;;;;;6.98;67.20;96728.97;5000538;28;20350;-75
2024/01/05 07:15:34;;;;;;;2.55;1.38;;;;;;;6.95;67.24;96713.25;4988827;28;20203;-75
2024/01/05 07:18:01;;;;;;;2.20;1.23;;;;;;;7.07;66.94;96722.34;4987966;28;20195;-73
2024/01/05 07:20:27;;;;;;;1.98;1.40;;;;;;;7.08;67.01;96724.00;4982771;28;20199;-72
2024/01/05 07:22:54;;;;;;;2.90;1.40;;;;;;;7.11;67.07;96722.75;4988434;28;20205;-71
2024/01/05 07:25:20;;;;;;;3.30;1.35;;;;;;;7.04;66.93;96714.69;4987638;28;20302;-73
2024/01/05 07:27:47;;;;;;;2.45;1.60;;;;;;;7.01;67.25;96717.81;5020055;28;20313;-73
2024/01/05 07:30:14;;;;;;;1.77;1.52;;;;;;;6.98;67.41;96716.38;4987465;28;20281;-72
2024/01/05 07:32:42;;;;;;;2.47;1.40;;;;;;;6.92;67.75;96709.13;4987769;28;20748;-73
2024/01/05 07:35:10;;;;;;;4.00;1.50;;;;;;;6.99;67.71;96709.94;4983200;28;20255;-72
2024/01/05 07:37:37;;;;;;;2.17;1.50;;;;;;;7.05;67.44;96719.03;4989048;28;20206;-73
2024/01/05 07:40:05;;;;;;;1.88;1.52;;;;;;;7.12;67.01;96709.09;4983233;28;20223;-73
2024/01/05 07:42:34;;;;;;;2.15;1.30;;;;;;;7.07;67.12;96717.78;4987074;28;20215;-73
2024/01/05 07:45:00;;;;;;;2.55;1.30;;;;;;;7.14;66.96;96719.63;4988023;28;20211;-73
2024/01/05 07:47:27;;;;;;;3.15;1.40;;;;;;;6.99;67.29;96731.47;4982196;28;20313;-73
2024/01/05 07:49:55;;;;;;;3.85;1.60;;;;;;;7.03;67.34;96723.78;4985239;28;20668;-73
2024/01/05 07:52:21;;;;;;;3.45;1.58;;;;;;;6.99;67.53;96714.50;4982917;28;20204;-73
2024/01/05 07:54:48;;;;;;;3.28;1.40;;;;;;;6.99;67.52;96715.31;4984022;28;20200;-72
2024/01/05 07:57:15;;;;;;;2.50;1.58;;;;;;;7.02;67.67;96709.53;4985146;28;20207;-73
2024/01/05 07:59:41;;;;;;;4.07;2.05;;;;;;;6.84;68.06;96705.84;4985344;28;20207;-79
2024/01/05 08:02:10;;;;;;;6.97;2.28;;;;;;;6.95;67.87;96711.41;4963884;28;20237;-76
2024/01/05 08:04:37;;;;;;;4.40;1.90;;;;;;;6.95;67.91;96713.25;4989451;28;20231;-76
2024/01/05 08:07:05;;;;;;;1.65;1.45;;;;;;;6.91;68.30;96718.25;4988165;28;20199;-75
2024/01/05 08:09:32;;;;;;;4.93;1.90;;;;;;;7.00;68.26;96721.53;4989781;28;20282;-75
2024/01/05 08:11:59;;;;;;;3.45;2.22;;;;;;;7.00;68.29;96703.53;4991694;28;20203;-76
2024/01/05 08:14:25;;;;;;;3.20;1.70;;;;;;;6.94;68.68;96712.44;4991318;28;20207;-75
2024/01/05 08:16:52;;;;;;;4.03;1.80;;;;;;;7.00;68.73;96710.78;4999539;28;20727;-74
2024/01/05 08:19:20;;;;;;;3.08;1.80;;;;;;;7.01;69.31;96697.09;4993129;28;20199;-81
2024/01/05 08:21:46;;;;;;;3.42;1.83;;;;;;;7.10;68.79;96699.56;4986584;28;20204;-80
2024/01/05 08:24:17;;;;;;;3.55;1.90;;;;;;;7.29;68.75;96699.47;5004163;28;20235;-80
2024/01/05 08:26:44;;;;;;;3.05;2.10;;;;;;;7.44;68.16;96693.81;4992726;28;20258;-80
2024/01/05 08:29:11;;;;;;;2.58;1.70;;;;;;;7.58;67.75;96702.63;5009308;28;20230;-72
2024/01/05 08:31:37;;;;;;;3.70;1.92;;;;;;;7.70;67.26;96701.72;4981835;28;20215;-73
2024/01/05 08:34:04;;;;;;;3.33;1.95;;;;;;;7.84;66.70;96696.22;4989291;28;20851;-72
2024/01/05 08:36:30;;;;;;;4.28;2.20;;;;;;;7.81;66.94;96702.88;4987561;28;20563;-73
2024/01/05 08:38:57;;;;;;;2.45;1.42;;;;;;;7.93;66.84;96706.53;4989640;28;20254;-73
2024/01/05 08:41:25;;;;;;;3.78;2.08;;;;;;;7.98;66.50;96701.31;5003741;28;20199;-73
2024/01/05 08:43:52;;;;;;;2.78;1.70;;;;;;;8.04;66.48;96696.94;4988290;28;20192;-73
2024/01/05 08:46:18;;;;;;;4.35;1.60;;;;;;;8.26;66.25;96692.78;4990739;28;20218;-73
2024/01/05 08:48:45;;;;;;;6.80;1.77;;;;;;;8.29;65.94;96694.22;4989862;28;20696;-73
2024/01/05 08:51:12;;;;;;;2.08;1.80;;;;;;;8.30;66.04;96704.78;4991157;28;20210;-73
2024/01/05 08:53:38;;;;;;;4.05;2.15;;;;;;;8.35;65.78;96698.78;4990773;28;20203;-73
2024/01/05 08:56:07;;;;;;;3.92;1.92;;;;;;;8.38;66.09;96701.03;4990923;28;20199;-73
2024/01/05 08:58:35;;;;;;;2.92;2.40;;;;;;;8.34;65.94;96699.81;5004382;28;20234;-74
2024/01/05 09:01:01;;;;;;;3.05;1.85;;;;;;;8.47;65.86;96696.97;4989425;28;20203;-73
2024/01/05 09:03:29;;;;;;;5.40;2.00;;;;;;;8.61;65.33;96703.09;4982912;28;20203;-73
2024/01/05 09:05:55;;;;;;;3.13;1.60;;;;;;;8.64;65.01;96699.94;4989862;28;20206;-73
2024/01/05 09:08:23;;;;;;;2.00;1.70;;;;;;;8.41;65.71;96706.81;4984259;28;21089;-74
2024/01/05 09:10:51;;;;;;;3.40;2.05;;;;;;;8.58;65.45;96698.13;5014412;28;20203;-73
2024/01/05 09:13:19;;;;;;;2.80;1.95;;;;;;;8.61;65.20;96706.59;4982672;28;20286;-73
2024/01/05 09:15:48;;;;;;;4.07;2.08;;;;;;;8.94;64.40;96708.94;4995753;28;20214;-73
2024/01/05 09:18:14;;;;;;;3.72;1.88;;;;;;;8.79;64.62;96721.16;4981721;28;20207;-73
2024/01/05 09:20:41;;;;;;;3.78;1.92;;;;;;;9.08;63.99;96717.72;4989740;28;20214;-73
2024/01/05 09:23:08;;;;;;;3.58;1.75;;;;;;;9.06;63.48;96711.72;4967810;28;20207;-73
2024/01/05 09:25:35;;;;;;;2.92;1.65;;;;;;;9.20;63.68;96720.47;4985761;28;20267;-73
2024/01/05 09:28:03;;;;;;;4.03;2.15;;;;;;;9.53;62.32;96717.38;4985915;28;20223;-73
2024/01/05 09:30:31;;;;;;;5.00;1.90;;;;;;;9.55;61.92;96720.66;4984615;28;20650;-73
2024/01/05 09:32:59;;;;;;;3.38;1.90;;;;;;;9.51;61.81;96719.47;4983939;28;20871;-72
2024/01/05 09:35:26;;;;;;;3.67;2.40;;;;;;;9.32;62.51;96727.59;4981724;28;20207;-73
2024/01/05 09:37:52;;;;;;;2.33;1.90;;;;;;;9.29;62.71;96732.63;4987161;28;20636;-73
2024/01/05 09:40:21;;;;;;;3.83;2.53;;;;;;;9.19;63.04;96724.22;4988966;28;20195;-74
2024/01/05 09:42:51;;;;;;;3.25;2.20;;;;;;;9.25;62.88;96737.66;4989254;28;20199;-73
2024/01/05 09:45:21;;;;;;;4.13;2.22;;;;;;;8.99;63.52;96737.97;4988135;28;20204;-75
2024/01/05 09:47:49;;;;;;;7.85;2.75;;;;;;;8.91;64.30;96743.66;4989584;28;20241;-81
2024/01/05 09:50:17;;;;;;;3.47;2.15;;;;;;;8.74;65.34;96741.53;4987021;28;20207;-73
2024/01/05 09:52:45;;;;;;;3.20;2.40;;;;;;;8.86;64.73;96740.78;4984247;28;20202;-73
2024/01/05 09:55:11;;;;;;;2.50;2.25;;;;;;;8.68;64.76;96734.34;4986239;28;20207;-74
2024/01/05 09:57:40;;;;;;;2.95;2.20;;;;;;;8.71;65.07;96736.59;5003197;28;20199;-73
2024/01/05 10:00:08;;;;;;;3.83;2.45;;;;;;;8.57;65.68;96734.22;4983387;28;20729;-73
2024/01/05 10:02:40;;;;;;;4.00;2.10;;;;;;;8.62;66.05;96732.53;4984506;28;20230;-73
2024/01/05 10:05:08;;;;;;;2.80;2.22;;;;;;;8.72;66.22;96727.44;4997832;28;20234;-73
2024/01/05 10:07:42;;;;;;;4.60;2.00;;;;;;;8.85;65.84;96721.06;4982552;28;20207;-74
2024/01/05 10:10:10;;;;;;;3.72;2.00;;;;;;;8.77;65.62;96717.88;4988398;28;21159;-73
2024/01/05 10:12:37;;;;;;;4.75;2.13;;;;;;;9.02;65.01;96721.31;4989477;28;20835;-73
2024/01/05 10:15:06;;;;;;;3.85;2.00;;;;;;;9.15;64.75;96723.03;4986751;28;20211;-73
2024/01/05 10:17:33;;;;;;;4.45;2.50;;;;;;;8.97;64.84;96727.38;5001865;28;20202;-73
2024/01/05 10:20:11;;;;;;;4.57;2.00;;;;;;;9.13;64.69;96723.25;4995608;28;20276;-74
2024/01/05 10:22:38;;;;;;;4.13;2.20;;;;;;;9.17;64.46;96719.06;5003439;28;20302;-72
2024/01/05 10:25:16;;;;;;;3.95;2.20;;;;;;;9.28;64.46;96731.81;4988968;28;20211;-73
2024/01/05 10:27:43;;;;;;;4.18;2.85;;;;;;;9.24;64.64;96725.22;4988814;28;20227;-73
2024/01/05 10:30:11;;;;;;;3.85;2.67;;;;;;;9.06;65.29;96733.31;4986959;28;20211;-73
2024/01/05 10:36:07;;;;;;;3.90;2.70;;;;;;;9.05;65.19;96737.91;4984391;28;20206;-73
2024/01/05 10:38:33;;;;;;;3.22;2.20;;;;;;;9.14;64.97;96741.09;4986597;28;20556;-73
2024/01/05 10:41:07;;;;;;;4.20;3.00;;;;;;;9.07;64.87;96737.66;4983810;28;20222;-73
2024/01/05 10:43:34;;;;;;;7.38;3.38;;;;;;;9.01;65.58;96730.47;4986750;28;20203;-73
2024/01/05 10:46:01;;;;;;;4.82;2.78;;;;;;;8.92;65.57;96737.19;4987944;28;20203;-74
2024/01/05 10:48:27;;;;;;;5.38;2.30;;;;;;;9.13;65.68;96731.34;4987904;28;20302;-74
2024/01/05 10:50:55;;;;;;;4.40;2.00;;;;;;;9.36;64.83;96722.59;4988538;28;20371;-74
2024/01/05 10:53:24;;;;;;;4.63;2.85;;;;;;;9.55;63.62;96718.78;4986297;28;20482;-74
2024/01/05 10:55:51;;;;;;;3.65;2.88;;;;;;;9.63;63.87;96723.88;4987594;28;20234;-74
2024/01/05 10:58:19;;;;;;;3.42;2.50;;;;;;;9.66;64.08;96712.63;4987615;28;20219;-73
2024/01/05 11:00:47;;;;;;;3.97;2.25;;;;;;;9.73;63.75;96712.53;4983404;28;20192;-74
2024/01/05 11:03:14;;;;;;;4.68;2.50;;;;;;;9.77;63.74;96709.13;4984481;28;20196;-73
2024/01/05 11:05:42;;;;;;;3.42;2.25;;;;;;;9.95;62.86;96716.34;4984744;28;20214;-74
2024/01/05 11:08:17;;;;;;;4.57;1.90;;;;;;;9.94;62.98;96698.50;4985292;28;20211;-73
2024/01/05 11:10:50;;;;;;;5.43;2.50;;;;;;;10.04;62.92;96706.88;4985339;28;21131;-74
2024/01/05 11:13:30;;;;;;;3.17;1.80;;;;;;;10.27;62.03;96698.00;4985666;28;20222;-74
2024/01/05 11:16:15;;;;;;;3.55;1.90;;;;;;;10.53;61.38;96704.84;4988516;28;20282;-74
2024/01/05 11:19:03;;;;;;;5.35;2.00;;;;;;;10.28;62.45;96688.00;4987112;28;20199;-74
2024/01/05 11:21:39;;;;;;;3.75;1.83;;;;;;;10.13;62.89;96684.88;4978592;28;20199;-74
2024/01/05 11:24:06;;;;;;;3.17;1.50;;;;;;;10.00;63.70;96692.16;4980220;28;20204;-74
2024/01/05 11:26:35;;;;;;;2.30;1.83;;;;;;;9.59;64.58;96692.97;4986877;28;20257;-73
2024/01/05 11:29:03;;;;;;;3.70;1.92;;;;;;;9.51;65.42;96700.56;4970053;28;20276;-73
2024/01/05 11:31:53;;;;;;;3.70;1.60;;;;;;;9.66;65.04;96703.69;4988402;28;20213;-75
2024/01/05 11:34:34;;;;;;;2.75;1.80;;;;;;;9.65;65.39;96699.34;4987775;28;20290;-73
2024/01/05 11:37:01;;;;;;;4.05;2.60;;;;;;;9.68;65.67;96696.19;4987379;28;20218;-73
2024/01/05 11:39:46;;;;;;;4.05;2.60;;;;;;;9.84;65.46;96690.13;4987466;28;20294;-74
2024/01/05 11:42:28;;;;;;;4.13;2.53;;;;;;;9.62;65.06;96694.41;4986323;28;20272;-73
2024/01/05 11:44:57;;;;;;;3.53;2.40;;;;;;;9.72;65.08;96683.88;4987797;28;20792;-73
2024/01/05 11:47:40;;;;;;;3.38;2.00;;;;;;;9.73;64.83;96682.81;4984362;28;20739;-73